Time;durP1;ratioP1;P1;durP2;ratioP2;P2;SDS_P1;SDS_P2;PMS_P1;PMS_P2;Temp;Humidity;BMP_temperature;BMP_pressure;BME280_temperature;BME280_humidity;BME280_pressure;Samples;Min_cycle;Max_cycle;Signal;HPM_P1;HPM_P2
2023/01/19 00:00:29;;;;;;;2.45;1.55;;;0.80;99.90;;;;;;5017402;28;20721;-77
2023/01/19 00:02:56;;;;;;;1.95;1.17;;;0.80;99.90;;;;;;5021180;28;20044;-76
2023/01/19 00:05:23;;;;;;;2.63;1.33;;;0.80;99.90;;;;;;4987777;28;20107;-77
2023/01/19 00:07:49;;;;;;;4.63;1.58;;;0.80;99.90;;;;;;5013004;28;20538;-77
2023/01/19 00:10:16;;;;;;;3.25;1.50;;;0.80;99.90;;;;;;5038245;28;20295;-76
2023/01/19 00:12:43;;;;;;;2.72;1.35;;;0.80;99.90;;;;;;5040093;28;20097;-77
2023/01/19 00:15:10;;;;;;;2.53;1.25;;;0.80;99.90;;;;;;5020225;28;20063;-77
2023/01/19 00:17:39;;;;;;;3.03;1.48;;;0.80;99.90;;;;;;5036224;28;20519;-77
2023/01/19 00:20:07;;;;;;;2.58;1.40;;;0.70;99.90;;;;;;5020322;28;20064;-76
2023/01/19 00:22:34;;;;;;;4.03;1.77;;;0.70;99.90;;;;;;5040019;28;20449;-77
2023/01/19 00:25:01;;;;;;;2.92;1.20;;;0.70;99.90;;;;;;5003198;28;20056;-77
2023/01/19 00:27:29;;;;;;;1.50;1.20;;;0.70;99.90;;;;;;5038622;28;20053;-77
2023/01/19 00:29:56;;;;;;;3.17;1.55;;;0.70;99.90;;;;;;5009994;28;20412;-77
2023/01/19 00:32:23;;;;;;;2.95;1.80;;;0.70;99.90;;;;;;5027767;28;20292;-76
2023/01/19 00:34:51;;;;;;;2.20;1.20;;;0.70;99.90;;;;;;5012951;28;20063;-77
2023/01/19 00:37:17;;;;;;;2.58;1.58;;;0.60;99.90;;;;;;5016023;28;20445;-77
2023/01/19 00:39:44;;;;;;;1.90;1.23;;;0.60;99.90;;;;;;5019617;28;20056;-77
2023/01/19 00:44:56;;;;;;;2.13;1.30;;;0.60;99.90;;;;;;5032203;28;20053;-77
2023/01/19 00:47:23;;;;;;;4.60;2.45;;;0.60;99.90;;;;;;5037440;28;20145;-77
2023/01/19 00:49:50;;;;;;;1.98;1.30;;;0.50;99.90;;;;;;4986278;28;20045;-77
2023/01/19 00:52:17;;;;;;;3.25;1.63;;;0.60;99.90;;;;;;5038127;28;20052;-77
2023/01/19 00:54:44;;;;;;;2.53;1.50;;;0.50;99.90;;;;;;5016444;28;20126;-77
2023/01/19 00:57:11;;;;;;;1.95;1.30;;;0.50;99.90;;;;;;5019836;28;20056;-77
2023/01/19 00:59:38;;;;;;;2.47;1.27;;;0.50;99.90;;;;;;5001683;28;20164;-76
2023/01/19 01:02:05;;;;;;;2.17;1.30;;;0.50;99.90;;;;;;5041558;28;20052;-77
2023/01/19 01:04:32;;;;;;;2.90;1.48;;;0.50;99.90;;;;;;5004508;28;20059;-76
2023/01/19 01:06:58;;;;;;;2.88;1.20;;;0.50;99.90;;;;;;4996692;28;20129;-77
2023/01/19 01:09:26;;;;;;;3.20;1.40;;;0.40;99.90;;;;;;5002134;28;20053;-77
2023/01/19 01:11:53;;;;;;;3.03;1.55;;;0.40;99.90;;;;;;5023303;28;20445;-77
2023/01/19 01:14:20;;;;;;;1.73;1.20;;;0.40;99.90;;;;;;5002674;28;20056;-77
2023/01/19 01:16:46;;;;;;;2.42;1.42;;;0.40;99.90;;;;;;5000489;28;20457;-76
2023/01/19 01:19:13;;;;;;;3.55;2.25;;;0.40;99.90;;;;;;5016556;28;20151;-77
2023/01/19 01:21:40;;;;;;;2.47;1.60;;;0.40;99.90;;;;;;5041384;28;20049;-76
2023/01/19 01:24:07;;;;;;;2.80;1.45;;;0.40;99.90;;;;;;5039365;28;20045;-76
2023/01/19 01:26:34;;;;;;;2.20;1.42;;;0.40;99.90;;;;;;4996540;28;20148;-76
2023/01/19 01:29:01;;;;;;;2.40;1.40;;;0.40;99.90;;;;;;5003990;28;20064;-76
2023/01/19 01:31:27;;;;;;;2.35;1.35;;;0.40;99.90;;;;;;5032030;28;20524;-76
2023/01/19 01:33:54;;;;;;;1.85;1.42;;;0.30;99.90;;;;;;5012042;28;20214;-76
2023/01/19 01:36:21;;;;;;;2.42;1.38;;;0.30;99.90;;;;;;5005301;28;20499;-76
2023/01/19 01:38:48;;;;;;;1.70;1.20;;;0.30;99.90;;;;;;5014551;28;20152;-77
2023/01/19 01:41:14;;;;;;;2.38;1.20;;;0.30;99.90;;;;;;5022244;28;20048;-77
2023/01/19 01:43:50;;;;;;;3.30;1.60;;;0.30;99.90;;;;;;5009647;28;20102;-77
2023/01/19 01:46:18;;;;;;;3.38;1.50;;;0.30;99.90;;;;;;5020808;28;20053;-77
2023/01/19 01:49:10;;;;;;;2.40;1.30;;;0.30;99.90;;;;;;5016568;28;20576;-77
2023/01/19 01:51:42;;;;;;;2.22;1.58;;;0.30;99.90;;;;;;5004189;28;20057;-77
2023/01/19 01:54:24;;;;;;;2.47;1.98;;;0.30;99.90;;;;;;5025440;28;20272;-77
2023/01/19 01:56:52;;;;;;;3.08;1.80;;;0.30;99.90;;;;;;5018924;28;20072;-76
2023/01/19 01:59:37;;;;;;;1.73;1.30;;;0.30;99.90;;;;;;5033307;28;20053;-77
2023/01/19 02:04:54;;;;;;;1.55;1.08;;;0.30;99.90;;;;;;5030315;28;20056;-77
2023/01/19 02:13:19;;;;;;;1.55;0.93;;;0.20;99.90;;;;;;5036082;28;20045;-77
2023/01/19 02:15:57;;;;;;;2.25;1.15;;;0.20;99.90;;;;;;5003974;28;20053;-76
2023/01/19 02:18:26;;;;;;;1.23;1.00;;;0.20;99.90;;;;;;5043705;28;20083;-77
2023/01/19 02:20:55;;;;;;;1.63;1.08;;;0.20;99.90;;;;;;5006128;28;20049;-77
2023/01/19 02:23:48;;;;;;;1.95;1.10;;;0.20;99.90;;;;;;5028854;28;20126;-76
2023/01/19 02:26:20;;;;;;;2.70;1.77;;;0.20;99.90;;;;;;5028261;28;20500;-77
2023/01/19 02:29:10;;;;;;;2.80;1.50;;;0.20;99.90;;;;;;5008185;28;20056;-77
2023/01/19 02:31:38;;;;;;;1.80;1.33;;;0.20;99.90;;;;;;5026719;28;20079;-76
2023/01/19 02:34:06;;;;;;;1.30;0.93;;;0.20;99.90;;;;;;5007285;28;20068;-77
2023/01/19 02:37:07;;;;;;;1.13;0.90;;;0.20;99.90;;;;;;5010073;28;20388;-76
2023/01/19 02:39:50;;;;;;;1.15;0.90;;;0.10;99.90;;;;;;5040691;28;20045;-77
2023/01/19 02:42:45;;;;;;;0.95;0.77;;;0.00;99.90;;;;;;5019565;28;20063;-77
2023/01/19 02:45:13;;;;;;;1.27;0.70;;;0.10;99.90;;;;;;5021147;28;20080;-76
2023/01/19 02:47:45;;;;;;;0.65;0.50;;;0.00;99.90;;;;;;5026168;28;20045;-76
2023/01/19 02:50:38;;;;;;;1.35;1.00;;;-0.10;99.90;;;;;;5025933;28;20467;-77
2023/01/19 02:53:26;;;;;;;1.05;0.63;;;-0.10;99.90;;;;;;5046045;28;20056;-76
2023/01/19 02:56:13;;;;;;;0.85;0.65;;;-0.20;99.90;;;;;;5044486;28;20243;-76
2023/01/19 02:59:08;;;;;;;1.25;0.73;;;-0.30;99.90;;;;;;5025042;28;20098;-77
2023/01/19 03:01:53;;;;;;;1.00;0.73;;;-0.40;99.90;;;;;;5042873;28;20053;-76
2023/01/19 03:04:34;;;;;;;0.82;0.60;;;-0.40;99.90;;;;;;5042974;28;20818;-77
2023/01/19 03:07:13;;;;;;;0.65;0.50;;;-0.40;99.90;;;;;;5040521;28;20056;-76
2023/01/19 03:09:42;;;;;;;0.73;0.60;;;-0.50;99.90;;;;;;5006949;28;20083;-76
2023/01/19 03:12:39;;;;;;;1.42;0.85;;;-0.50;99.90;;;;;;5027183;28;20182;-76
2023/01/19 03:15:31;;;;;;;1.23;0.70;;;-0.60;99.90;;;;;;5042899;28;20053;-76
2023/01/19 03:17:58;;;;;;;0.98;0.65;;;-0.60;99.90;;;;;;5041515;28;20639;-76
2023/01/19 03:20:27;;;;;;;0.80;0.68;;;-0.70;99.90;;;;;;5024235;28;20080;-76
2023/01/19 03:23:03;;;;;;;0.73;0.70;;;-0.70;99.90;;;;;;5017732;28;20056;-76
2023/01/19 03:25:32;;;;;;;0.57;0.57;;;-0.70;99.90;;;;;;5025522;28;20084;-76
2023/01/19 03:27:58;;;;;;;0.80;0.65;;;-0.70;99.90;;;;;;4992734;28;20049;-76
2023/01/19 03:30:27;;;;;;;0.60;0.60;;;-0.70;99.90;;;;;;5031818;28;20137;-76
2023/01/19 03:32:58;;;;;;;1.33;0.80;;;-0.80;99.90;;;;;;5026171;28;20072;-76
2023/01/19 03:35:28;;;;;;;0.98;0.70;;;-0.90;99.90;;;;;;5031454;28;20513;-76
2023/01/19 03:37:56;;;;;;;0.77;0.70;;;-0.90;99.90;;;;;;5005908;28;20045;-76
2023/01/19 03:40:27;;;;;;;1.00;0.80;;;-1.00;99.90;;;;;;5006299;28;20057;-76
2023/01/19 03:42:54;;;;;;;1.40;0.73;;;-1.00;99.90;;;;;;5006621;28;20045;-76
2023/01/19 03:45:21;;;;;;;0.80;0.70;;;-1.00;99.90;;;;;;5021864;28;20051;-76
2023/01/19 03:47:48;;;;;;;0.65;0.60;;;-1.00;99.90;;;;;;4990896;28;20380;-76
2023/01/19 03:50:23;;;;;;;1.00;0.80;;;-1.10;99.90;;;;;;5021820;28;20053;-76
2023/01/19 03:53:20;;;;;;;2.05;0.70;;;-1.10;99.90;;;;;;5008890;28;20139;-76
2023/01/19 03:55:48;;;;;;;1.40;0.80;;;-1.10;99.90;;;;;;5010096;28;20080;-76
2023/01/19 03:58:16;;;;;;;0.52;0.43;;;-1.10;99.90;;;;;;5008205;28;20567;-76
2023/01/19 04:00:42;;;;;;;0.43;0.43;;;-1.10;99.90;;;;;;5032745;28;20055;-76
2023/01/19 04:03:12;;;;;;;1.08;0.65;;;-1.20;99.90;;;;;;5044329;28;20049;-76
2023/01/19 04:05:39;;;;;;;1.13;0.68;;;-1.10;99.90;;;;;;5009197;28;20173;-76
2023/01/19 04:08:05;;;;;;;1.27;0.90;;;-1.10;99.90;;;;;;5044798;28;20410;-76
2023/01/19 04:10:32;;;;;;;0.68;0.68;;;-1.10;99.90;;;;;;5025765;28;20148;-77
2023/01/19 04:13:00;;;;;;;0.55;0.55;;;-1.10;99.90;;;;;;5026448;28;20072;-75
2023/01/19 04:15:27;;;;;;;1.27;0.70;;;-1.00;99.90;;;;;;5032499;28;20081;-76
2023/01/19 04:17:56;;;;;;;0.90;0.50;;;-1.00;99.90;;;;;;5034006;28;20068;-76
2023/01/19 04:20:25;;;;;;;0.60;0.60;;;-0.90;99.90;;;;;;5032174;28;20331;-76
2023/01/19 04:22:51;;;;;;;0.65;0.65;;;-0.90;99.90;;;;;;5034231;28;20359;-76
2023/01/19 04:25:18;;;;;;;0.50;0.50;;;-0.90;99.90;;;;;;5043848;28;20542;-76
2023/01/19 04:27:45;;;;;;;0.63;0.60;;;-0.80;99.90;;;;;;5009972;28;20045;-76
2023/01/19 04:30:12;;;;;;;0.82;0.80;;;-0.80;99.90;;;;;;5044852;28;20474;-76
2023/01/19 04:32:55;;;;;;;0.60;0.60;;;-0.80;99.90;;;;;;5009828;28;20444;-76
2023/01/19 04:35:22;;;;;;;0.45;0.40;;;-0.80;99.90;;;;;;5009996;28;20124;-76
2023/01/19 04:54:33;;;;;;;0.77;0.60;;;-0.90;99.90;;;;;;5022884;28;20060;-76
2023/01/19 04:57:00;;;;;;;0.47;0.47;;;-1.00;99.90;;;;;;5006225;28;20077;-76
2023/01/19 04:59:27;;;;;;;0.60;0.50;;;-1.00;99.90;;;;;;5006683;28;20502;-76
2023/01/19 05:01:55;;;;;;;0.60;0.60;;;-1.00;99.90;;;;;;4986697;28;20144;-76
2023/01/19 05:04:24;;;;;;;1.25;0.80;;;-0.90;99.90;;;;;;5004660;28;20548;-76
2023/01/19 05:06:52;;;;;;;0.70;0.60;;;-0.90;99.90;;;;;;5005982;28;20095;-77
2023/01/19 05:09:19;;;;;;;0.47;0.47;;;-1.00;99.90;;;;;;4989288;28;20165;-76
2023/01/19 05:11:46;;;;;;;0.70;0.57;;;-1.00;99.90;;;;;;5005071;28;20149;-76
2023/01/19 05:14:13;;;;;;;0.50;0.50;;;-1.00;99.90;;;;;;5001210;28;20046;-76
2023/01/19 05:16:39;;;;;;;0.75;0.70;;;-1.00;99.90;;;;;;5005830;28;20521;-76
2023/01/19 05:19:06;;;;;;;1.23;0.80;;;-1.00;99.90;;;;;;5006719;28;20596;-76
2023/01/19 05:21:33;;;;;;;1.85;0.80;;;-1.00;99.90;;;;;;5007360;28;20235;-76
2023/01/19 05:24:00;;;;;;;0.65;0.52;;;-1.00;99.90;;;;;;5005440;28;20095;-76
2023/01/19 05:26:26;;;;;;;1.20;0.93;;;-1.00;99.90;;;;;;4973500;28;20490;-76
2023/01/19 05:28:53;;;;;;;0.70;0.63;;;-1.10;99.90;;;;;;4973986;28;20050;-77
2023/01/19 05:31:20;;;;;;;1.33;0.70;;;-1.10;99.90;;;;;;4984617;28;20068;-76
2023/01/19 05:33:47;;;;;;;0.82;0.70;;;-1.10;99.90;;;;;;5006171;28;20058;-76
2023/01/19 05:36:14;;;;;;;0.75;0.60;;;-1.20;99.90;;;;;;5006467;28;20140;-76
2023/01/19 05:38:41;;;;;;;1.17;0.77;;;-1.20;99.90;;;;;;5003901;28;20038;-76
2023/01/19 05:41:07;;;;;;;0.60;0.55;;;-1.20;99.90;;;;;;5003479;28;20060;-76
2023/01/19 05:43:34;;;;;;;1.20;0.70;;;-1.30;99.90;;;;;;5000256;28;20056;-76
2023/01/19 05:46:03;;;;;;;1.73;0.90;;;-1.30;99.90;;;;;;5003320;28;20114;-76
2023/01/19 05:48:30;;;;;;;0.98;0.80;;;-1.20;99.90;;;;;;5004206;28;20055;-76
2023/01/19 05:50:57;;;;;;;0.80;0.70;;;-1.20;99.90;;;;;;5003113;28;20076;-76
2023/01/19 05:53:24;;;;;;;1.00;0.82;;;-1.30;99.90;;;;;;4984796;28;20057;-77
2023/01/19 05:55:51;;;;;;;0.70;0.70;;;-1.20;99.90;;;;;;5001661;28;20141;-77
2023/01/19 05:58:18;;;;;;;1.05;0.80;;;-1.20;99.90;;;;;;5017126;28;20100;-77
2023/01/19 06:00:45;;;;;;;0.93;0.80;;;-1.20;99.90;;;;;;4983866;28;20133;-77
2023/01/19 06:03:12;;;;;;;1.58;0.85;;;-1.20;99.90;;;;;;4995854;28;20846;-77
2023/01/19 06:05:38;;;;;;;0.70;0.70;;;-1.20;99.90;;;;;;4978283;28;20046;-77
2023/01/19 06:08:05;;;;;;;1.05;0.70;;;-1.20;99.90;;;;;;4998092;28;20050;-77
2023/01/19 06:10:32;;;;;;;0.65;0.60;;;-1.30;99.90;;;;;;4968545;28;20049;-77
2023/01/19 06:12:59;;;;;;;0.85;0.70;;;-1.30;99.90;;;;;;4995193;28;20214;-76
2023/01/19 06:15:26;;;;;;;0.57;0.52;;;-1.30;99.90;;;;;;4995764;28;20046;-77
2023/01/19 06:17:53;;;;;;;1.05;0.75;;;-1.40;99.90;;;;;;5001688;28;20371;-77
2023/01/19 06:20:19;;;;;;;2.13;0.85;;;-1.30;99.90;;;;;;5013526;28;20126;-77
2023/01/19 06:22:46;;;;;;;0.65;0.60;;;-1.30;99.90;;;;;;4998902;28;20058;-77
2023/01/19 06:25:13;;;;;;;0.82;0.75;;;-1.20;99.90;;;;;;4993999;28;20511;-77
2023/01/19 06:27:44;;;;;;;1.00;0.68;;;-1.20;99.90;;;;;;4997404;28;20330;-76
2023/01/19 06:30:12;;;;;;;0.70;0.70;;;-1.20;99.90;;;;;;4993123;28;20325;-75
2023/01/19 06:32:38;;;;;;;0.88;0.65;;;-1.20;99.90;;;;;;4998128;28;20092;-76
2023/01/19 06:35:06;;;;;;;1.63;0.65;;;-1.20;99.90;;;;;;4994048;28;20052;-76
2023/01/19 06:37:33;;;;;;;3.00;1.17;;;-1.20;99.90;;;;;;5001589;28;20321;-76
2023/01/19 06:40:00;;;;;;;1.35;0.90;;;-1.20;99.90;;;;;;4997783;28;20045;-76
2023/01/19 06:42:27;;;;;;;0.98;0.80;;;-1.20;99.90;;;;;;4984065;28;20314;-76
2023/01/19 06:44:54;;;;;;;1.17;0.85;;;-1.20;99.90;;;;;;5015184;28;20398;-76
2023/01/19 06:47:21;;;;;;;0.60;0.60;;;-1.20;99.90;;;;;;4996788;28;20204;-75
2023/01/19 06:49:48;;;;;;;0.95;0.80;;;-1.30;99.90;;;;;;5012735;28;20519;-76
2023/01/19 06:52:16;;;;;;;0.80;0.80;;;-1.30;99.90;;;;;;4997492;28;20133;-76
2023/01/19 06:54:46;;;;;;;0.95;0.70;;;-1.20;99.90;;;;;;4993139;28;20497;-76
2023/01/19 06:57:13;;;;;;;1.45;0.90;;;-1.20;99.90;;;;;;5023379;28;20050;-76
2023/01/19 06:59:40;;;;;;;1.48;0.90;;;-1.30;99.90;;;;;;4962701;28;20081;-76
2023/01/19 07:02:08;;;;;;;1.52;1.00;;;-1.30;99.90;;;;;;5008300;28;20053;-77
2023/01/19 07:04:54;;;;;;;1.17;0.88;;;-1.20;99.90;;;;;;4964889;28;20132;-76
2023/01/19 07:07:21;;;;;;;1.33;1.00;;;-1.30;99.90;;;;;;4995227;28;20054;-76
2023/01/19 07:09:48;;;;;;;2.05;0.80;;;-1.30;99.90;;;;;;4992944;28;20156;-77
2023/01/19 07:12:19;;;;;;;1.40;0.75;;;-1.30;99.90;;;;;;4995902;28;20049;-76
2023/01/19 07:14:48;;;;;;;2.15;0.90;;;-1.30;99.90;;;;;;5008052;28;20577;-76
2023/01/19 07:17:15;;;;;;;1.33;0.90;;;-1.30;99.90;;;;;;5012073;28;20058;-85
2023/01/19 07:19:42;;;;;;;0.90;0.85;;;-1.30;99.90;;;;;;4998618;28;20104;-87
2023/01/19 07:22:09;;;;;;;1.20;0.90;;;-1.20;99.90;;;;;;5002891;28;20057;-83
2023/01/19 07:24:36;;;;;;;1.08;0.85;;;-1.20;99.90;;;;;;5004331;28;20481;-84
2023/01/19 07:27:04;;;;;;;1.08;0.85;;;-1.20;99.90;;;;;;5035252;28;20438;-83
2023/01/19 07:29:31;;;;;;;0.90;0.85;;;-1.20;99.90;;;;;;4986452;28;20057;-84
2023/01/19 07:31:58;;;;;;;1.25;0.90;;;-1.20;99.90;;;;;;4998669;28;20131;-84
2023/01/19 07:34:25;;;;;;;1.60;0.88;;;-1.20;99.90;;;;;;5002293;28;20165;-85
2023/01/19 07:36:51;;;;;;;1.02;0.80;;;-1.20;99.90;;;;;;4982692;28;20532;-84
2023/01/19 07:39:18;;;;;;;1.30;0.80;;;-1.20;99.90;;;;;;4985234;28;20438;-84
2023/01/19 07:41:47;;;;;;;1.00;0.90;;;-1.20;99.90;;;;;;4995320;28;20567;-84
2023/01/19 07:44:14;;;;;;;1.58;0.93;;;-1.10;99.90;;;;;;5036741;28;20042;-83
2023/01/19 07:46:42;;;;;;;0.80;0.73;;;-1.10;99.90;;;;;;4999676;28;20335;-81
2023/01/19 07:49:10;;;;;;;0.68;0.68;;;-1.10;99.90;;;;;;4981547;28;20141;-83
2023/01/19 07:51:37;;;;;;;1.17;1.08;;;-1.00;99.90;;;;;;4996662;28;20583;-84
2023/01/19 07:54:04;;;;;;;0.98;0.82;;;-1.00;99.90;;;;;;4986906;28;20395;-83
2023/01/19 07:56:31;;;;;;;1.20;0.88;;;-1.00;99.90;;;;;;4984833;28;20129;-83
2023/01/19 07:58:59;;;;;;;0.95;0.70;;;-1.00;99.90;;;;;;5001458;28;20107;-84
2023/01/19 08:01:28;;;;;;;0.70;0.63;;;-0.90;99.90;;;;;;4996103;28;20061;-83
2023/01/19 08:03:55;;;;;;;1.52;0.80;;;-0.90;99.90;;;;;;5001178;28;20133;-83
2023/01/19 08:06:23;;;;;;;0.68;0.60;;;-1.00;99.90;;;;;;4981290;28;20050;-83
2023/01/19 08:08:50;;;;;;;1.10;0.80;;;-1.00;99.90;;;;;;5001691;28;20521;-84
2023/01/19 08:11:17;;;;;;;0.93;0.82;;;-1.00;99.90;;;;;;5018451;28;20066;-84
2023/01/19 08:13:44;;;;;;;0.77;0.60;;;-0.90;99.90;;;;;;5003662;28;20136;-84
2023/01/19 08:16:11;;;;;;;0.90;0.80;;;-0.90;99.90;;;;;;4998541;28;20675;-84
2023/01/19 08:18:38;;;;;;;0.85;0.63;;;-0.90;99.90;;;;;;5006587;28;20058;-84
2023/01/19 08:21:06;;;;;;;1.20;0.57;;;-0.90;99.90;;;;;;4985957;28;20138;-83
2023/01/19 08:23:33;;;;;;;0.50;0.50;;;-1.00;99.90;;;;;;5006042;28;20085;-84
2023/01/19 08:26:00;;;;;;;1.40;0.70;;;-0.90;99.90;;;;;;5002111;28;20050;-83
2023/01/19 08:28:27;;;;;;;1.33;0.80;;;-1.00;99.90;;;;;;5004449;28;20420;-82
2023/01/19 08:30:54;;;;;;;1.00;0.90;;;-0.90;99.90;;;;;;4987676;28;20053;-83
2023/01/19 08:33:22;;;;;;;0.77;0.77;;;-0.90;99.90;;;;;;5004958;28;20065;-84
2023/01/19 08:35:50;;;;;;;1.17;1.00;;;-0.90;99.90;;;;;;4997145;28;20053;-83
2023/01/19 08:38:17;;;;;;;1.55;1.00;;;-0.90;99.90;;;;;;4985615;28;20090;-83
2023/01/19 08:40:45;;;;;;;1.02;0.85;;;-0.90;99.90;;;;;;4986089;28;20096;-83
2023/01/19 08:43:13;;;;;;;1.92;1.02;;;-0.80;99.90;;;;;;4998300;28;20536;-84
2023/01/19 08:45:44;;;;;;;1.40;0.80;;;-0.80;99.90;;;;;;4984148;28;20340;-83
2023/01/19 08:48:12;;;;;;;0.90;0.80;;;-0.80;99.90;;;;;;4985218;28;20132;-84
2023/01/19 08:50:39;;;;;;;1.15;0.85;;;-0.80;99.90;;;;;;5001618;28;20512;-83
2023/01/19 08:53:06;;;;;;;0.70;0.70;;;-0.80;99.90;;;;;;4987507;28;20111;-84
2023/01/19 08:55:34;;;;;;;1.10;0.88;;;-0.80;99.90;;;;;;4987045;28;20069;-84
2023/01/19 08:58:02;;;;;;;1.70;1.05;;;-0.80;99.90;;;;;;5012697;28;20228;-84
2023/01/19 09:00:32;;;;;;;1.42;0.70;;;-0.80;99.90;;;;;;4990674;28;20123;-84
2023/01/19 09:03:01;;;;;;;0.85;0.73;;;-0.80;99.90;;;;;;4982660;28;20054;-84
2023/01/19 09:05:34;;;;;;;0.90;0.90;;;-0.80;99.90;;;;;;4998025;28;20167;-83
2023/01/19 09:08:01;;;;;;;1.55;0.80;;;-0.80;99.90;;;;;;4986123;28;20057;-84
2023/01/19 09:10:34;;;;;;;1.13;0.80;;;-0.80;99.90;;;;;;5004424;28;20057;-85
2023/01/19 09:13:04;;;;;;;0.80;0.80;;;-0.90;99.90;;;;;;4999776;28;20264;-84
2023/01/19 09:15:34;;;;;;;0.65;0.65;;;-0.90;99.90;;;;;;4996815;28;20433;-84
2023/01/19 09:18:01;;;;;;;1.20;1.05;;;-0.90;99.90;;;;;;4985020;28;20081;-84
2023/01/19 09:20:30;;;;;;;1.00;0.80;;;-0.80;99.90;;;;;;5000131;28;20340;-85
2023/01/19 09:22:57;;;;;;;0.77;0.70;;;-0.80;99.90;;;;;;4987043;28;20053;-85
2023/01/19 09:25:24;;;;;;;2.85;1.02;;;-0.80;99.90;;;;;;4975169;28;20054;-84
2023/01/19 09:27:51;;;;;;;0.98;0.80;;;-0.70;99.90;;;;;;4961800;28;20215;-80
2023/01/19 09:30:18;;;;;;;1.10;0.93;;;-0.70;99.90;;;;;;4975803;28;20132;-81
2023/01/19 09:32:45;;;;;;;0.73;0.63;;;-0.70;99.90;;;;;;5002324;28;20516;-80
2023/01/19 09:35:11;;;;;;;0.82;0.70;;;-0.60;99.90;;;;;;4992862;28;20050;-81
2023/01/19 09:37:38;;;;;;;0.60;0.60;;;-0.50;99.90;;;;;;4960769;28;20043;-80
2023/01/19 09:40:05;;;;;;;0.70;0.70;;;-0.40;99.90;;;;;;4977887;28;20647;-81
2023/01/19 09:42:40;;;;;;;1.00;0.80;;;-0.40;99.90;;;;;;4979531;28;20054;-79
2023/01/19 09:45:14;;;;;;;0.90;0.75;;;-0.30;99.90;;;;;;4998262;28;20184;-84
2023/01/19 09:47:40;;;;;;;1.85;0.85;;;-0.20;99.90;;;;;;5003585;28;20140;-86
2023/01/19 09:50:34;;;;;;;1.25;1.13;;;-0.10;99.90;;;;;;4985630;28;20058;-81
2023/01/19 09:53:15;;;;;;;1.13;0.70;;;-0.10;99.90;;;;;;4971106;28;20580;-78
2023/01/19 09:55:42;;;;;;;0.68;0.68;;;0.00;99.90;;;;;;4991255;28;20555;-78
2023/01/19 09:58:17;;;;;;;0.60;0.60;;;0.10;99.90;;;;;;5003104;28;20452;-78
2023/01/19 10:00:58;;;;;;;0.93;0.70;;;0.10;99.90;;;;;;4982607;28;20535;-77
2023/01/19 10:03:25;;;;;;;0.68;0.68;;;0.20;99.90;;;;;;5004649;28;20059;-77
2023/01/19 10:05:59;;;;;;;1.05;0.77;;;0.30;99.90;;;;;;4998265;28;20065;-78
2023/01/19 10:08:35;;;;;;;0.75;0.75;;;0.40;99.90;;;;;;4982139;28;20078;-77
2023/01/19 10:11:02;;;;;;;0.73;0.73;;;0.50;99.90;;;;;;4999032;28;20081;-78
2023/01/19 10:13:31;;;;;;;0.70;0.70;;;0.60;99.90;;;;;;4998617;28;20084;-78
2023/01/19 10:16:25;;;;;;;0.95;0.80;;;0.70;99.90;;;;;;4999513;28;20065;-78
2023/01/19 10:18:54;;;;;;;1.65;1.20;;;0.70;99.90;;;;;;4999005;28;20749;-78
2023/01/19 10:21:26;;;;;;;1.02;0.80;;;0.90;99.90;;;;;;4984751;28;20504;-78
2023/01/19 10:23:59;;;;;;;1.45;1.00;;;1.00;99.90;;;;;;4985593;28;20172;-78
2023/01/19 10:26:33;;;;;;;1.05;0.90;;;1.10;99.90;;;;;;4998638;28;20513;-77
2023/01/19 10:29:04;;;;;;;2.08;1.08;;;1.20;99.90;;;;;;4995627;28;20112;-78
2023/01/19 10:31:31;;;;;;;1.92;0.88;;;1.30;99.90;;;;;;5014717;28;20319;-77
2023/01/19 10:33:58;;;;;;;2.45;1.40;;;1.40;99.90;;;;;;5002756;28;20107;-77
2023/01/19 10:36:28;;;;;;;3.03;1.10;;;1.40;99.90;;;;;;4985809;28;20149;-77
2023/01/19 10:38:55;;;;;;;1.92;1.10;;;1.50;99.90;;;;;;5003731;28;20133;-78
2023/01/19 10:41:27;;;;;;;1.73;1.10;;;1.50;99.90;;;;;;5001779;28;20136;-77
2023/01/19 10:44:01;;;;;;;1.92;0.95;;;1.60;99.90;;;;;;5000539;28;20127;-78
2023/01/19 10:46:38;;;;;;;2.22;1.30;;;1.70;99.90;;;;;;4999313;28;20459;-78
2023/01/19 10:49:05;;;;;;;2.17;0.82;;;1.70;99.90;;;;;;4986781;28;20452;-78
2023/01/19 10:51:32;;;;;;;1.98;1.05;;;1.80;99.90;;;;;;4982809;28;20061;-77
2023/01/19 10:53:59;;;;;;;3.00;1.35;;;1.90;99.90;;;;;;4986309;28;20054;-77
2023/01/19 10:56:31;;;;;;;2.22;1.25;;;2.00;99.90;;;;;;5026574;28;20087;-78
2023/01/19 10:59:02;;;;;;;1.55;0.90;;;2.00;99.90;;;;;;5000819;28;20091;-77
2023/01/19 11:01:29;;;;;;;1.40;0.98;;;2.10;99.90;;;;;;4999848;28;20056;-77
2023/01/19 11:04:04;;;;;;;1.27;1.02;;;2.10;99.90;;;;;;5023390;28;20053;-77
2023/01/19 11:06:31;;;;;;;1.30;0.90;;;2.20;99.90;;;;;;5008326;28;20082;-77
2023/01/19 11:09:16;;;;;;;1.33;1.00;;;2.20;99.90;;;;;;5018784;28;20134;-77
2023/01/19 11:11:48;;;;;;;0.80;0.80;;;2.20;99.90;;;;;;5002524;28;20136;-77
2023/01/19 11:14:18;;;;;;;1.60;0.88;;;2.30;99.90;;;;;;5014894;28;20080;-78
2023/01/19 11:16:46;;;;;;;0.95;0.80;;;2.30;99.90;;;;;;5029525;28;20052;-77
2023/01/19 11:19:28;;;;;;;1.83;1.00;;;2.40;99.90;;;;;;5001333;28;20457;-77
2023/01/19 11:22:28;;;;;;;0.80;0.80;;;2.50;99.90;;;;;;5019383;28;20280;-78
2023/01/19 11:25:03;;;;;;;1.15;0.90;;;2.50;99.90;;;;;;4981583;28;20181;-77
2023/01/19 11:27:31;;;;;;;1.75;1.10;;;2.60;99.90;;;;;;5012983;28;20053;-78
2023/01/19 11:29:59;;;;;;;2.10;1.15;;;2.70;99.90;;;;;;4997021;28;20166;-78
2023/01/19 11:32:26;;;;;;;2.55;1.35;;;2.80;99.90;;;;;;5015354;28;20053;-78
2023/01/19 11:34:53;;;;;;;1.92;1.27;;;2.80;99.90;;;;;;5017387;28;20103;-77
2023/01/19 11:37:24;;;;;;;1.98;1.10;;;2.90;99.90;;;;;;4995113;28;20081;-77
2023/01/19 11:39:58;;;;;;;1.30;1.00;;;3.10;99.90;;;;;;5017820;28;20162;-77
2023/01/19 11:42:25;;;;;;;2.05;0.85;;;3.20;99.90;;;;;;4984740;28;20156;-80
2023/01/19 11:44:58;;;;;;;3.40;1.38;;;3.40;99.90;;;;;;4987054;28;20049;-78
2023/01/19 11:47:48;;;;;;;2.55;1.20;;;3.60;99.90;;;;;;5035438;28;20512;-78
2023/01/19 11:50:22;;;;;;;2.28;1.15;;;3.70;99.90;;;;;;4995078;28;20108;-77
2023/01/19 11:52:54;;;;;;;2.60;1.35;;;3.90;99.90;;;;;;5026305;28;20147;-76
2023/01/19 11:55:50;;;;;;;3.50;1.60;;;4.10;99.90;;;;;;4995378;28;20059;-77
2023/01/19 11:58:20;;;;;;;3.20;1.80;;;4.10;99.90;;;;;;5002399;28;20148;-77
2023/01/19 12:01:15;;;;;;;2.15;1.10;;;4.10;99.90;;;;;;5002920;28;20061;-77
2023/01/19 12:03:56;;;;;;;1.83;1.15;;;4.30;99.90;;;;;;5041342;28;20149;-76
2023/01/19 12:06:34;;;;;;;2.03;1.10;;;4.30;99.90;;;;;;5035625;28;20056;-77
2023/01/19 12:09:10;;;;;;;1.80;1.33;;;4.40;99.90;;;;;;5002891;28;20087;-79
2023/01/19 12:11:52;;;;;;;1.58;1.23;;;4.60;99.90;;;;;;5020486;28;20048;-77
2023/01/19 12:14:30;;;;;;;1.48;1.20;;;4.70;99.90;;;;;;5012248;28;20129;-77
2023/01/19 12:16:58;;;;;;;2.65;1.50;;;4.90;99.90;;;;;;4997761;28;20564;-78
2023/01/19 12:19:35;;;;;;;2.60;1.45;;;5.20;99.90;;;;;;5007550;28;20053;-77
2023/01/19 12:22:03;;;;;;;2.92;1.98;;;5.30;99.90;;;;;;5013289;28;20518;-78
2023/01/19 12:24:39;;;;;;;2.88;1.60;;;5.30;99.90;;;;;;4997529;28;20057;-78
2023/01/19 12:27:38;;;;;;;3.58;2.33;;;5.40;99.90;;;;;;5016075;28;20484;-78
2023/01/19 12:30:15;;;;;;;1.80;1.60;;;5.40;99.90;;;;;;5034438;28;20059;-77
2023/01/19 12:32:42;;;;;;;2.35;1.35;;;5.50;99.90;;;;;;5019951;28;20492;-77
2023/01/19 12:35:48;;;;;;;2.38;1.65;;;5.60;99.90;;;;;;5028873;28;20076;-78
2023/01/19 12:38:51;;;;;;;2.75;1.45;;;5.60;99.90;;;;;;5033089;28;20570;-76
2023/01/19 12:41:34;;;;;;;2.90;1.70;;;5.70;99.90;;;;;;5031234;28;20415;-77
2023/01/19 12:44:10;;;;;;;2.00;1.48;;;5.80;99.90;;;;;;5013964;28;20183;-77
2023/01/19 12:46:53;;;;;;;3.47;2.33;;;6.10;99.90;;;;;;5035039;28;20409;-77
2023/01/19 12:49:32;;;;;;;2.85;2.10;;;6.20;99.90;;;;;;5032969;28;20079;-77
2023/01/19 12:52:29;;;;;;;3.78;2.33;;;6.20;99.90;;;;;;4992785;28;20434;-77
2023/01/19 12:55:10;;;;;;;2.88;1.80;;;6.30;99.90;;;;;;5000843;28;20053;-77
2023/01/19 12:57:38;;;;;;;3.78;1.50;;;6.50;99.90;;;;;;5022545;28;20069;-80
2023/01/19 13:00:22;;;;;;;5.82;2.40;;;6.80;99.90;;;;;;5018346;28;20240;-83
2023/01/19 13:02:50;;;;;;;3.47;2.30;;;6.90;99.90;;;;;;5018537;28;20136;-81
2023/01/19 13:05:29;;;;;;;2.97;1.90;;;7.10;99.90;;;;;;5037748;28;20056;-85
2023/01/19 13:08:02;;;;;;;3.03;1.88;;;7.20;99.90;;;;;;5039167;28;20053;-82
2023/01/19 13:11:08;;;;;;;2.72;1.80;;;7.40;99.90;;;;;;5035024;28;20079;-81
2023/01/19 13:13:36;;;;;;;3.20;1.70;;;7.70;99.90;;;;;;5022893;28;20149;-82
2023/01/19 13:16:18;;;;;;;2.92;2.00;;;7.90;99.90;;;;;;5011910;28;20064;-82
2023/01/19 13:18:48;;;;;;;2.53;1.70;;;8.10;99.90;;;;;;5037369;28;20130;-82
2023/01/19 13:21:36;;;;;;;3.03;1.92;;;8.30;99.90;;;;;;5036817;28;20543;-82
2023/01/19 13:24:08;;;;;;;4.13;2.25;;;8.40;99.90;;;;;;5036802;28;20136;-83
2023/01/19 13:26:37;;;;;;;3.42;2.13;;;8.20;99.90;;;;;;5009137;28;20049;-82
2023/01/19 13:29:13;;;;;;;3.80;2.10;;;8.00;99.90;;;;;;5001702;28;20156;-82
2023/01/19 13:31:41;;;;;;;3.67;2.17;;;7.90;99.90;;;;;;5018544;28;20412;-82
2023/01/19 13:34:18;;;;;;;2.63;1.75;;;7.90;99.90;;;;;;5010586;28;20057;-83
2023/01/19 13:36:48;;;;;;;2.60;1.67;;;8.00;99.90;;;;;;5019907;28;20180;-82
2023/01/19 13:39:25;;;;;;;3.88;1.85;;;8.10;99.90;;;;;;5040252;28;20052;-84
2023/01/19 13:41:53;;;;;;;4.55;2.17;;;8.00;99.90;;;;;;4999245;28;20080;-82